x

Ilm2 - 5 Miles Se Of Wrightsville Beach, Nc (41038) Weather Station

8:08am - Sun 20th Aug 2017 All times are EDT. -4 hours from GMT.

  • Wind
    7mph, 9mph gusts
  • Sea Temp 83°f
  • 空気 Temp 82°f
  • Sea Pressure 1017.4mb
  • Ilm2 - 5 Miles Se Of Wrightsville Beach, Nc
  • Ilm2 - 5 Miles Se Of Wrightsville Beach, Nc

More Historic Weather Station data

Upgrade to MSW Pro to gain access to the past 30 days of data for over 8000 Wavebouys and Weather Stations around the globe.

Join

Comparision Forecast

View Surf forecast
   
Sun 08/20 8:08am 7 9 mph 1017.4mb 83f 82f
7:08am 7 9 mph 1016.9mb 83f 82f
6:08am 9 11 mph 1016mb 83f 82f
5:08am 11 13 mph 1015.7mb 83f 83f
4:08am 11 16 mph 1015.5mb 83f 83f
3:08am 13 18 mph 1015.4mb 83f 83f
2:08am 16 22 mph 1015.4mb 83f 83f
1:08am 13 18 mph 1015.6mb 83f 83f
Sat 08/19 11:08pm 7 11 mph 1015mb 83f 82f
10:08pm 7 11 mph 1014.8mb 83f 82f
9:08pm 4 9 mph 1014.4mb 83f 81f
8:08pm 4 9 mph 1013.8mb 83f 80f
7:08pm 4 9 mph 1013.9mb 83f 79f
6:08pm 4 11 mph 1014.3mb 83f 76f
5:08pm 25 40 mph 1014.8mb 84f 77f
4:08pm 7 13 mph 1013.4mb 83f 81f
3:08pm 16 22 mph 1013.5mb 83f 84f
2:08pm 18 25 mph 1013.1mb 83f 84f
1:08pm 13 20 mph 1013.9mb 83f 84f
12:08pm 11 18 mph 1014mb 83f 84f
11:08am 9 16 mph 1014.3mb 83f 85f
10:08am 11 16 mph 1013.9mb 83f 84f
9:08am 13 18 mph 1013.7mb 83f 84f
8:08am 13 18 mph 1013.6mb 83f 84f
7:08am 13 18 mph 1013.2mb 83f 83f
6:08am 13 18 mph 1012.9mb 83f 83f
5:08am 16 22 mph 1012.9mb 83f 83f
4:08am 16 22 mph 1013.2mb 83f 83f
3:08am 16 22 mph 1013.4mb 83f 84f
2:08am 13 20 mph 1013.6mb 83f 84f
1:08am 16 22 mph 1013.9mb 84f 84f
12:08am 13 22 mph 1013.8mb 84f 84f
Fri 08/18 11:08pm 13 22 mph 1013.5mb 84f 84f
10:08pm 13 22 mph 1013.1mb 85f 84f
9:08pm 13 25 mph 1012.8mb 85f 84f
8:08pm 13 22 mph 1012.7mb 85f 84f
7:08pm 13 22 mph 1012.5mb 85f 85f
6:08pm 13 25 mph 1012.4mb 85f 85f
5:08pm 16 25 mph 1012.3mb 85f 85f
4:08pm 13 25 mph 1012.2mb 85f 85f
3:08pm 13 22 mph 1012.6mb 85f 85f
2:08pm 13 25 mph 1013.1mb 85f 85f
1:08pm 11 18 mph 1014mb 84f 84f
12:08pm 13 20 mph 1014.4mb 84f 85f
11:08am 9 16 mph 1014.8mb 84f 85f
10:08am 9 13 mph 1014.6mb 84f 85f
9:08am 11 16 mph 1014.4mb 83f 84f
8:08am 11 18 mph 1014.2mb 83f 84f
7:08am 9 16 mph 1013.9mb 83f 84f
6:08am 11 18 mph 1013.8mb 83f 84f
5:08am 11 20 mph 1013.7mb 83f 84f
4:08am 11 18 mph 1013.5mb 83f 84f
3:08am 11 20 mph 1013.8mb 83f 84f
2:08am 11 18 mph 1014.3mb 83f 83f
1:08am 13 20 mph 1014.8mb 83f 83f
12:08am 11 16 mph 1015.2mb 83f 83f
Thu 08/17 11:08pm 7 11 mph 1015.4mb 83f 83f
10:08pm 9 13 mph 1015.3mb 83f 83f
9:08pm 4 7 mph 1015.1mb 83f 82f
8:08pm 7 11 mph 1014.9mb 84f 82f
7:08pm 13 18 mph 1015mb 84f 82f
6:08pm 11 16 mph 1015mb 84f 82f
5:08pm 9 16 mph 1015.2mb 84f 83f
4:08pm 9 16 mph 1015.3mb 84f 84f
3:08pm 9 16 mph 1016.1mb 84f 84f
2:08pm 9 13 mph 1016.5mb 84f 84f
1:08pm 9 16 mph 1016.6mb 84f 84f
12:08pm 11 16 mph 1017.5mb 84f 83f
11:08am 9 13 mph 1017.6mb 83f 83f
10:08am 7 11 mph 1017.5mb 83f 83f
9:08am 9 13 mph 1017.2mb 83f 83f
8:08am 9 13 mph 1016.9mb 83f 83f
7:08am 9 13 mph 1016.5mb 83f 83f
6:08am 4 11 mph 1016.1mb 83f 82f
5:08am 4 7 mph 1015.9mb 83f 82f
4:08am 2 4 mph 1015.6mb 83f 82f
3:08am 2 4 mph 1015.9mb 83f 82f
2:08am 2 4 mph 1016.2mb 83f 82f
1:08am 4 4 mph 1016.6mb 83f 82f
12:08am 4 7 mph 1016.7mb 83f 82f
Wed 08/16 11:08pm 4 9 mph 1016.9mb 83f 82f
10:08pm 7 11 mph 1016.8mb 83f 81f
9:08pm 7 11 mph 1016.2mb 84f 82f
8:08pm 11 13 mph 1015.7mb 84f 83f
7:08pm 7 13 mph 1015mb 84f 83f
6:08pm 7 11 mph 1015.1mb 84f 83f
5:08pm 9 11 mph 1015.1mb 84f 83f
4:08pm 7 11 mph 1015.3mb 84f 82f
3:08pm 9 13 mph 1015.2mb 85f 83f
2:08pm 9 13 mph 1015.5mb 85f 83f